createdAt,value
2022-09-03T00:00:25.002Z,19.04
2022-09-03T00:03:07.831Z,18.99
2022-09-03T00:05:46.960Z,19.01
2022-09-03T00:08:44.503Z,18.93
2022-09-03T00:11:14.726Z,18.89
2022-09-03T00:13:51.454Z,18.83
2022-09-03T00:16:22.570Z,18.84
2022-09-03T00:19:03.180Z,18.81
2022-09-03T00:21:44.415Z,18.79
2022-09-03T00:24:15.242Z,18.77
2022-09-03T00:26:46.674Z,18.71
2022-09-03T00:29:20.992Z,18.66
2022-09-03T00:32:14.265Z,18.58
2022-09-03T00:34:47.030Z,18.51
2022-09-03T00:37:14.452Z,18.41
2022-09-03T00:39:42.586Z,18.39
2022-09-03T00:42:23.544Z,18.39
2022-09-03T00:44:55.771Z,18.36
2022-09-03T00:47:40.425Z,18.31
2022-09-03T00:50:07.170Z,18.29
2022-09-03T00:52:45.975Z,18.28
2022-09-03T00:55:38.605Z,18.25
2022-09-03T00:58:18.366Z,18.16
2022-09-03T01:00:45.581Z,18.11
2022-09-03T01:03:51.210Z,18.06
2022-09-03T01:06:29.483Z,17.98
2022-09-03T01:09:25.435Z,17.89
2022-09-03T01:12:01.002Z,17.86
2022-09-03T01:14:48.260Z,17.83
2022-09-03T01:17:20.568Z,17.80
2022-09-03T01:19:56.106Z,17.78
2022-09-03T01:22:50.066Z,17.75
2022-09-03T01:25:38.912Z,17.74
2022-09-03T01:28:20.431Z,17.76
2022-09-03T01:31:00.485Z,17.72
2022-09-03T01:33:33.087Z,17.68
2022-09-03T01:36:28.431Z,17.62
2022-09-03T01:39:12.303Z,17.56
2022-09-03T01:42:11.672Z,17.49
2022-09-03T01:45:06.379Z,17.35
2022-09-03T01:47:54.772Z,17.36
2022-09-03T01:50:27.410Z,17.41
2022-09-03T01:53:34.878Z,17.29
2022-09-03T01:56:37.432Z,17.22
2022-09-03T01:59:18.367Z,17.27
2022-09-03T02:02:01.606Z,17.15
2022-09-03T02:04:28.665Z,17.17
2022-09-03T02:07:00.438Z,17.09
2022-09-03T02:09:32.831Z,17.07
2022-09-03T02:12:08.838Z,17.01
2022-09-03T02:14:36.081Z,16.99
2022-09-03T02:17:05.820Z,16.95
2022-09-03T02:19:34.578Z,16.88
2022-09-03T02:22:01.102Z,16.75
2022-09-03T02:24:28.467Z,16.74
2022-09-03T02:26:55.821Z,16.72
2022-09-03T02:29:23.230Z,16.64
2022-09-03T02:31:49.845Z,16.65
2022-09-03T02:34:16.389Z,16.72
2022-09-03T02:36:48.233Z,16.72
2022-09-03T02:39:16.188Z,16.67
2022-09-03T02:41:44.546Z,16.65
2022-09-03T02:44:25.919Z,16.65
2022-09-03T02:46:58.336Z,16.66
2022-09-03T02:49:24.980Z,16.57
2022-09-03T02:51:51.483Z,16.50
2022-09-03T02:54:21.074Z,16.51
2022-09-03T02:56:49.660Z,16.43
2022-09-03T02:59:17.899Z,16.43
2022-09-03T03:01:44.430Z,16.41
2022-09-03T03:04:13.645Z,16.32
2022-09-03T03:06:40.228Z,16.33
2022-09-03T03:09:07.072Z,16.33
2022-09-03T03:11:35.373Z,16.38
2022-09-03T03:14:01.860Z,16.34
2022-09-03T03:16:29.404Z,16.25
2022-09-03T03:18:57.152Z,16.19
2022-09-03T03:21:23.751Z,16.18
2022-09-03T03:23:50.419Z,16.23
2022-09-03T03:26:19.008Z,16.29
2022-09-03T03:28:47.938Z,16.34
2022-09-03T03:31:17.343Z,16.33
2022-09-03T03:33:44.537Z,16.30
2022-09-03T03:36:14.280Z,16.27
2022-09-03T03:38:42.889Z,16.23
2022-09-03T03:41:11.507Z,16.23
2022-09-03T03:43:38.343Z,16.24
2022-09-03T03:46:05.372Z,16.26
2022-09-03T03:48:32.990Z,16.24
2022-09-03T03:51:07.500Z,16.25
2022-09-03T03:53:35.551Z,16.26
2022-09-03T03:56:04.602Z,16.26
2022-09-03T03:58:33.286Z,16.14
2022-09-03T04:01:10.370Z,16.05
2022-09-03T04:03:37.679Z,15.98
2022-09-03T04:06:05.755Z,15.86
2022-09-03T04:08:36.345Z,15.79
2022-09-03T04:11:04.764Z,15.79
2022-09-03T04:13:37.124Z,15.80
2022-09-03T04:16:10.565Z,15.80
2022-09-03T04:18:38.192Z,15.82
2022-09-03T04:21:16.372Z,15.77
2022-09-03T04:23:46.324Z,15.70
2022-09-03T04:26:16.163Z,15.72
2022-09-03T04:28:43.426Z,15.76
2022-09-03T04:31:12.846Z,15.76
2022-09-03T04:33:40.892Z,15.71
2022-09-03T04:36:09.193Z,15.71
2022-09-03T04:38:37.875Z,15.73
2022-09-03T04:41:05.805Z,15.72
2022-09-03T04:43:32.411Z,15.72
2022-09-03T04:46:01.327Z,15.70
2022-09-03T04:48:28.969Z,15.73
2022-09-03T04:50:55.905Z,15.74
2022-09-03T04:53:22.959Z,15.66
2022-09-03T04:55:49.682Z,15.57
2022-09-03T04:58:16.218Z,15.56
2022-09-03T05:00:42.878Z,15.61
2022-09-03T05:03:09.413Z,15.66
2022-09-03T05:05:35.947Z,15.69
2022-09-03T05:08:03.103Z,15.62
2022-09-03T05:10:30.262Z,15.56
2022-09-03T05:13:02.149Z,15.57
2022-09-03T05:15:29.862Z,15.62
2022-09-03T05:18:01.889Z,15.55
2022-09-03T05:20:30.558Z,15.55
2022-09-03T05:22:57.619Z,15.62
2022-09-03T05:25:24.934Z,15.67
2022-09-03T05:27:51.761Z,15.69
2022-09-03T05:30:18.262Z,15.76
2022-09-03T05:32:44.734Z,15.80
2022-09-03T05:35:11.180Z,15.83
2022-09-03T05:37:38.113Z,15.82
2022-09-03T05:40:05.169Z,15.89
2022-09-03T05:42:32.293Z,15.90
2022-09-03T05:44:59.900Z,15.95
2022-09-03T05:47:26.377Z,16.01
2022-09-03T05:49:52.855Z,16.07
2022-09-03T05:52:21.657Z,16.14
2022-09-03T05:54:48.167Z,16.21
2022-09-03T05:57:14.769Z,16.31
2022-09-03T05:59:41.238Z,16.38
2022-09-03T06:02:07.805Z,16.46
2022-09-03T06:04:34.604Z,16.54
2022-09-03T06:07:01.090Z,16.60
2022-09-03T06:09:27.567Z,16.68
2022-09-03T06:11:54.294Z,16.75
2022-09-03T06:14:25.211Z,16.81
2022-09-03T06:16:52.957Z,16.86
2022-09-03T06:19:20.086Z,16.93
2022-09-03T06:21:47.408Z,16.99
2022-09-03T06:24:17.260Z,17.07
2022-09-03T06:26:45.030Z,17.10
2022-09-03T06:29:12.450Z,17.18
2022-09-03T06:31:39.737Z,17.24
2022-09-03T06:34:06.848Z,17.33
2022-09-03T06:36:33.429Z,17.42
2022-09-03T06:39:00.159Z,17.51
2022-09-03T06:41:31.754Z,17.60
2022-09-03T06:44:03.293Z,17.71
2022-09-03T06:46:32.461Z,17.79
2022-09-03T06:48:59.203Z,17.87
2022-09-03T06:51:27.980Z,17.95
2022-09-03T06:53:59.590Z,18.06
2022-09-03T06:56:26.415Z,18.14
2022-09-03T06:58:56.170Z,18.24
2022-09-03T07:01:28.270Z,18.35
2022-09-03T07:03:56.752Z,18.45
2022-09-03T07:06:28.496Z,18.54
2022-09-03T07:08:55.567Z,18.66
2022-09-03T07:11:26.921Z,18.77
2022-09-03T07:13:55.824Z,18.86
2022-09-03T07:16:37.287Z,18.94
2022-09-03T07:19:05.366Z,19.07
2022-09-03T07:21:34.135Z,19.18
2022-09-03T07:24:00.841Z,19.27
2022-09-03T07:26:30.454Z,19.36
2022-09-03T07:28:57.897Z,19.45
2022-09-03T07:31:31.107Z,19.57
2022-09-03T07:33:59.572Z,19.70
2022-09-03T07:36:28.886Z,19.80
2022-09-03T07:38:58.973Z,19.90
2022-09-03T07:41:29.046Z,20.01
2022-09-03T07:43:56.959Z,20.10
2022-09-03T07:46:25.678Z,20.21
2022-09-03T07:48:59.636Z,20.33
2022-09-03T07:51:28.378Z,20.42
2022-09-03T07:53:57.694Z,20.51
2022-09-03T07:56:25.160Z,20.60
2022-09-03T07:58:51.725Z,20.70
2022-09-03T08:01:20.647Z,20.79
2022-09-03T08:03:49.717Z,20.89
2022-09-03T08:06:18.084Z,20.96
2022-09-03T08:08:47.559Z,21.10
2022-09-03T08:11:16.628Z,21.19
2022-09-03T08:13:48.847Z,21.29
2022-09-03T08:16:18.580Z,21.42
2022-09-03T08:18:47.412Z,21.50
2022-09-03T08:21:16.974Z,21.57
2022-09-03T08:23:46.253Z,21.63
2022-09-03T08:26:14.946Z,21.77
2022-09-03T08:28:43.192Z,21.94
2022-09-03T08:31:21.367Z,22.05
2022-09-03T08:33:50.752Z,22.17
2022-09-03T08:36:25.937Z,22.26
2022-09-03T08:38:54.929Z,22.36
2022-09-03T08:41:40.850Z,22.42
2022-09-03T08:44:25.467Z,22.57
2022-09-03T08:47:21.427Z,22.63
2022-09-03T08:49:55.327Z,22.73
2022-09-03T08:52:26.113Z,22.76
2022-09-03T08:55:00.332Z,22.79
2022-09-03T08:57:26.924Z,22.85
2022-09-03T08:59:56.487Z,22.90
2022-09-03T09:02:42.312Z,23.00
2022-09-03T09:05:24.327Z,23.13
2022-09-03T09:08:06.926Z,23.30
2022-09-03T09:10:45.616Z,23.48
2022-09-03T09:13:28.697Z,23.62
2022-09-03T09:16:17.028Z,23.71
2022-09-03T09:19:09.832Z,23.85
2022-09-03T09:21:46.033Z,24.01
2022-09-03T09:24:24.134Z,24.14
2022-09-03T09:26:58.046Z,24.23
2022-09-03T09:29:28.023Z,24.29
2022-09-03T09:31:54.987Z,24.42
2022-09-03T09:34:21.540Z,24.61
2022-09-03T09:36:54.073Z,24.75
2022-09-03T09:39:21.311Z,24.79
2022-09-03T09:42:08.184Z,24.89
2022-09-03T09:44:42.245Z,25.09
2022-09-03T09:47:15.848Z,25.22
2022-09-03T09:49:54.541Z,25.31
2022-09-03T09:52:25.673Z,25.41
2022-09-03T09:54:56.950Z,25.50
2022-09-03T09:57:25.589Z,25.64
2022-09-03T10:00:11.171Z,25.80
2022-09-03T10:02:42.381Z,25.99
2022-09-03T10:05:19.474Z,26.09
2022-09-03T10:08:04.403Z,26.22
2022-09-03T10:10:37.868Z,26.34
2022-09-03T10:13:15.326Z,26.50
2022-09-03T10:15:51.016Z,26.77
2022-09-03T10:19:05.362Z,26.81
2022-09-03T10:22:18.098Z,26.98
2022-09-03T10:24:59.312Z,27.19
2022-09-03T10:27:25.938Z,27.40
2022-09-03T10:29:53.486Z,27.56
2022-09-03T10:32:50.026Z,27.77
2022-09-03T10:35:31.689Z,27.89
2022-09-03T10:38:22.895Z,28.00
2022-09-03T10:40:55.368Z,27.69
2022-09-03T10:43:33.949Z,27.25
2022-09-03T10:46:09.747Z,27.51
2022-09-03T10:49:09.339Z,27.70
2022-09-03T10:51:49.771Z,27.99
2022-09-03T10:54:19.191Z,28.20
2022-09-03T10:56:54.859Z,28.49
2022-09-03T10:59:29.257Z,28.85
2022-09-03T11:02:17.683Z,29.16
2022-09-03T11:04:58.791Z,29.44
2022-09-03T11:07:51.921Z,29.61
2022-09-03T11:10:31.082Z,29.83
2022-09-03T11:12:57.784Z,29.89
2022-09-03T11:15:40.079Z,29.86
2022-09-03T11:18:20.227Z,29.18
2022-09-03T11:20:49.606Z,29.47
2022-09-03T11:23:36.307Z,29.55
2022-09-03T11:26:09.087Z,29.43
2022-09-03T11:29:05.872Z,29.15
2022-09-03T11:31:57.892Z,29.20
2022-09-03T11:34:32.585Z,29.30
2022-09-03T11:37:25.570Z,29.37
2022-09-03T11:40:13.437Z,29.23
2022-09-03T11:42:42.899Z,29.51
2022-09-03T11:45:27.538Z,29.91
2022-09-03T11:47:54.603Z,30.05
2022-09-03T11:50:23.836Z,29.83
2022-09-03T11:53:06.707Z,29.59
2022-09-03T11:55:49.051Z,29.66
2022-09-03T11:58:34.594Z,29.95
2022-09-03T12:01:14.963Z,30.35
2022-09-03T12:03:51.351Z,30.39
2022-09-03T12:06:39.990Z,30.70
2022-09-03T12:09:31.026Z,31.06
2022-09-03T12:12:13.898Z,31.08
2022-09-03T12:15:07.715Z,30.88
2022-09-03T12:18:16.490Z,30.88
2022-09-03T12:20:43.628Z,31.25
2022-09-03T12:23:25.467Z,31.25
2022-09-03T12:25:53.256Z,31.51
2022-09-03T12:28:24.959Z,31.94
2022-09-03T12:30:53.650Z,32.47
2022-09-03T12:33:23.018Z,33.04
2022-09-03T12:36:01.220Z,33.27
2022-09-03T12:38:29.823Z,33.34
2022-09-03T12:43:51.953Z,34.34
2022-09-03T12:46:20.984Z,34.61
2022-09-03T12:51:54.531Z,35.08
2022-09-03T12:54:23.680Z,35.37
2022-09-03T12:57:00.482Z,34.35
2022-09-03T12:59:31.888Z,34.54
2022-09-03T13:02:04.874Z,34.49
2022-09-03T13:04:35.986Z,34.56
2022-09-03T13:07:06.767Z,34.40
2022-09-03T13:09:37.916Z,33.33
2022-09-03T13:12:05.880Z,33.27
2022-09-03T13:14:48.393Z,33.43
2022-09-03T13:17:44.951Z,33.29
2022-09-03T13:20:29.916Z,33.20
2022-09-03T13:22:59.282Z,33.09
2022-09-03T13:25:41.295Z,33.66
2022-09-03T13:28:22.511Z,33.75
2022-09-03T13:30:54.888Z,34.45
2022-09-03T13:33:29.350Z,34.51
2022-09-03T13:36:10.796Z,35.01
2022-09-03T13:38:41.775Z,35.22
2022-09-03T13:41:36.517Z,34.08
2022-09-03T13:44:35.770Z,34.08
2022-09-03T13:47:22.499Z,33.99
2022-09-03T13:50:22.229Z,33.32
2022-09-03T13:53:11.459Z,33.44
2022-09-03T13:55:51.692Z,33.44
2022-09-03T13:58:52.130Z,33.53
2022-09-03T14:01:24.533Z,33.53
2022-09-03T14:04:01.088Z,33.29
2022-09-03T14:06:45.111Z,33.42
2022-09-03T14:09:27.329Z,33.24
2022-09-03T14:12:06.325Z,33.82
2022-09-03T14:14:49.635Z,33.69
2022-09-03T14:17:18.992Z,34.08
2022-09-03T14:19:45.458Z,33.52
2022-09-03T14:22:22.213Z,33.59
2022-09-03T14:24:55.457Z,32.64
2022-09-03T14:27:31.634Z,32.14
2022-09-03T14:30:09.841Z,31.73
2022-09-03T14:32:45.044Z,31.37
2022-09-03T14:35:19.805Z,30.54
2022-09-03T14:38:15.714Z,30.35
2022-09-03T14:41:03.777Z,30.03
2022-09-03T14:43:36.437Z,29.77
2022-09-03T14:46:15.267Z,29.79
2022-09-03T14:48:47.534Z,29.73
2022-09-03T14:51:19.850Z,29.87
2022-09-03T14:54:24.145Z,29.53
2022-09-03T14:57:16.925Z,29.35
2022-09-03T15:00:04.617Z,29.54
2022-09-03T15:02:34.240Z,29.83
2022-09-03T15:05:22.302Z,30.14
2022-09-03T15:07:54.980Z,30.42
2022-09-03T15:10:40.078Z,30.61
2022-09-03T15:13:26.323Z,30.13
2022-09-03T15:16:20.529Z,30.24
2022-09-03T15:19:10.583Z,30.36
2022-09-03T15:21:55.242Z,30.75
2022-09-03T15:24:59.563Z,30.86
2022-09-03T15:27:32.379Z,30.91
2022-09-03T15:30:09.972Z,30.92
2022-09-03T15:33:07.285Z,30.83
2022-09-03T15:35:52.128Z,30.59
2022-09-03T15:39:00.647Z,30.56
2022-09-03T15:41:51.071Z,30.46
2022-09-03T15:44:20.105Z,30.50
2022-09-03T15:46:56.724Z,30.45
2022-09-03T15:50:15.326Z,30.35
2022-09-03T15:53:31.769Z,30.13
2022-09-03T15:56:13.534Z,30.13
2022-09-03T15:59:02.676Z,30.04
2022-09-03T16:01:44.300Z,29.91
2022-09-03T16:04:22.535Z,29.83
2022-09-03T16:07:16.329Z,29.73
2022-09-03T16:09:45.000Z,29.71
2022-09-03T16:12:29.637Z,29.62
2022-09-03T16:15:02.396Z,29.62
2022-09-03T16:17:50.591Z,29.54
2022-09-03T16:20:23.164Z,29.50
2022-09-03T16:22:59.365Z,29.33
2022-09-03T16:25:35.787Z,29.30
2022-09-03T16:28:24.438Z,29.27
2022-09-03T16:31:28.004Z,29.13
2022-09-03T16:34:02.457Z,29.09
2022-09-03T16:36:57.308Z,29.02
2022-09-03T16:40:06.257Z,28.94
2022-09-03T16:42:48.078Z,28.89
2022-09-03T16:45:42.200Z,28.94
2022-09-03T16:48:23.733Z,28.90
2022-09-03T16:51:05.917Z,28.84
2022-09-03T16:54:01.220Z,28.82
2022-09-03T16:56:46.434Z,28.78
2022-09-03T16:59:28.578Z,28.75
2022-09-03T17:02:42.163Z,28.59
2022-09-03T17:05:24.076Z,28.55
2022-09-03T17:08:24.437Z,28.52
2022-09-03T17:11:29.584Z,28.42
2022-09-03T17:14:12.632Z,28.41
2022-09-03T17:16:56.719Z,28.37
2022-09-03T17:20:17.429Z,28.32
2022-09-03T17:22:53.414Z,28.29
2022-09-03T17:25:34.791Z,28.27
2022-09-03T17:28:22.647Z,28.19
2022-09-03T17:30:58.542Z,28.15
2022-09-03T17:33:45.651Z,28.03
2022-09-03T17:36:24.312Z,27.85
2022-09-03T17:39:09.751Z,27.79
2022-09-03T17:41:53.324Z,27.75
2022-09-03T17:44:38.175Z,27.67
2022-09-03T17:47:21.103Z,27.56
2022-09-03T17:49:53.446Z,27.51
2022-09-03T17:52:32.125Z,27.45
2022-09-03T17:55:11.501Z,27.42
2022-09-03T17:57:45.592Z,27.33
2022-09-03T18:00:23.226Z,27.18
2022-09-03T18:03:07.528Z,27.02
2022-09-03T18:05:46.010Z,26.90
2022-09-03T18:08:24.738Z,26.73
2022-09-03T18:10:57.056Z,26.54
2022-09-03T18:13:30.163Z,26.42
2022-09-03T18:16:06.214Z,26.34
2022-09-03T18:18:37.655Z,26.25
2022-09-03T18:21:31.794Z,26.15
2022-09-03T18:25:01.621Z,26.11
2022-09-03T18:27:59.365Z,26.12
2022-09-03T18:30:46.792Z,26.12
2022-09-03T18:33:32.549Z,26.04
2022-09-03T18:36:17.929Z,26.01
2022-09-03T18:39:02.708Z,25.92
2022-09-03T18:42:05.971Z,25.94
2022-09-03T18:45:20.987Z,25.89
2022-09-03T18:48:22.089Z,25.79
2022-09-03T18:51:43.171Z,25.72
2022-09-03T18:55:03.856Z,25.68
2022-09-03T18:57:50.293Z,25.63
2022-09-03T19:00:35.781Z,25.47
2022-09-03T19:03:24.113Z,25.37
2022-09-03T19:06:34.928Z,25.18
2022-09-03T19:09:35.074Z,25.08
2022-09-03T19:12:59.594Z,25.01
2022-09-03T19:15:49.995Z,24.88
2022-09-03T19:22:11.639Z,24.66
2022-09-03T19:24:56.900Z,24.45
2022-09-03T19:28:03.923Z,24.43
2022-09-03T19:31:05.525Z,24.44
2022-09-03T19:34:17.459Z,24.38
2022-09-03T19:37:25.120Z,24.34
2022-09-03T19:40:37.958Z,24.17
2022-09-03T19:43:38.401Z,24.13
2022-09-03T19:46:57.139Z,24.10
2022-09-03T19:50:08.312Z,23.98
2022-09-03T19:53:05.539Z,23.94
2022-09-03T19:55:58.096Z,23.77
2022-09-03T19:58:47.967Z,23.56
2022-09-03T20:01:34.945Z,23.50
2022-09-03T20:04:34.411Z,23.35
2022-09-03T20:07:23.795Z,23.36
2022-09-03T20:10:10.559Z,23.24
2022-09-03T20:12:42.596Z,23.16
2022-09-03T20:15:09.737Z,23.12
2022-09-03T20:17:51.368Z,22.98
2022-09-03T20:20:17.935Z,22.92
2022-09-03T20:23:19.555Z,22.85
2022-09-03T20:26:07.290Z,22.86
2022-09-03T20:28:41.654Z,22.80
2022-09-03T20:31:15.456Z,22.78
2022-09-03T20:33:52.981Z,22.77
2022-09-03T20:36:24.181Z,22.72
2022-09-03T20:39:21.796Z,22.65
2022-09-03T20:42:36.595Z,22.54
2022-09-03T20:45:23.199Z,22.51
2022-09-03T20:48:23.695Z,22.55
2022-09-03T20:51:22.973Z,22.54
2022-09-03T20:54:07.408Z,22.54
2022-09-03T20:56:51.318Z,22.44
2022-09-03T20:59:44.554Z,22.44
2022-09-03T21:02:27.347Z,22.43
2022-09-03T21:05:09.214Z,22.40
2022-09-03T21:07:50.618Z,22.39
2022-09-03T21:10:24.729Z,22.40
2022-09-03T21:13:14.514Z,22.40
2022-09-03T21:15:56.633Z,22.40
2022-09-03T21:18:48.406Z,22.40
2022-09-03T21:21:36.217Z,22.29
2022-09-03T21:24:09.900Z,22.29
2022-09-03T21:26:42.264Z,22.29
2022-09-03T21:29:21.575Z,22.33
2022-09-03T21:32:03.944Z,22.31
2022-09-03T21:34:58.113Z,22.21
2022-09-03T21:37:24.988Z,22.18
2022-09-03T21:39:57.789Z,22.14
2022-09-03T21:42:27.071Z,22.11
2022-09-03T21:44:57.357Z,22.12
2022-09-03T21:47:27.011Z,22.11
2022-09-03T21:49:56.476Z,22.18
2022-09-03T21:52:33.634Z,22.17
2022-09-03T21:55:00.180Z,22.18
2022-09-03T21:57:38.672Z,22.14
2022-09-03T22:00:11.945Z,22.08
2022-09-03T22:02:38.712Z,22.00
2022-09-03T22:05:05.792Z,21.97
2022-09-03T22:07:56.603Z,21.91
2022-09-03T22:10:32.101Z,21.85
2022-09-03T22:13:14.597Z,21.80
2022-09-03T22:15:50.164Z,21.73
2022-09-03T22:18:36.476Z,21.63
2022-09-03T22:21:29.457Z,21.57
2022-09-03T22:23:55.974Z,21.52
2022-09-03T22:26:37.559Z,21.46
2022-09-03T22:29:21.284Z,21.43
2022-09-03T22:31:56.911Z,21.43
2022-09-03T22:34:48.070Z,21.37
2022-09-03T22:37:26.419Z,21.28
2022-09-03T22:40:04.566Z,21.23
2022-09-03T22:42:44.259Z,21.18
2022-09-03T22:45:13.758Z,21.19
2022-09-03T22:47:59.053Z,21.12
2022-09-03T22:50:31.577Z,21.07
2022-09-03T22:53:12.730Z,21.03
2022-09-03T22:55:45.536Z,20.97
2022-09-03T22:58:17.674Z,21.00
2022-09-03T23:00:54.463Z,20.95
2022-09-03T23:03:27.105Z,20.90
2022-09-03T23:06:04.890Z,20.87
2022-09-03T23:08:44.514Z,20.81
2022-09-03T23:11:55.353Z,20.74
2022-09-03T23:14:34.341Z,20.67
2022-09-03T23:22:51.456Z,20.51
2022-09-03T23:25:23.815Z,20.45
2022-09-03T23:28:00.090Z,20.41
2022-09-03T23:30:26.702Z,20.31
2022-09-03T23:32:57.087Z,20.30
2022-09-03T23:35:28.084Z,20.30
2022-09-03T23:38:40.680Z,20.20
2022-09-03T23:41:16.199Z,20.19
2022-09-03T23:44:03.055Z,20.15
2022-09-03T23:46:45.331Z,20.14
2022-09-03T23:49:17.817Z,20.10
2022-09-03T23:51:50.876Z,20.05
2022-09-03T23:54:33.671Z,20.02
2022-09-03T23:57:25.771Z,19.95
